sensor_id;sensor_type;location;lat;lon;timestamp;P1;durP1;ratioP1;P2;durP2;ratioP2
69410;SDS011;56604;48.652;9.194;2022-07-12T00:02:15;6.33;;;5.73;;
69410;SDS011;56604;48.652;9.194;2022-07-12T00:04:40;5.83;;;5.20;;
69410;SDS011;56604;48.652;9.194;2022-07-12T00:07:06;7.00;;;5.23;;
69410;SDS011;56604;48.652;9.194;2022-07-12T00:09:32;7.33;;;5.80;;
69410;SDS011;56604;48.652;9.194;2022-07-12T00:11:57;5.90;;;5.40;;
69410;SDS011;56604;48.652;9.194;2022-07-12T00:14:23;6.63;;;5.30;;
69410;SDS011;56604;48.652;9.194;2022-07-12T00:16:48;8.03;;;5.40;;
69410;SDS011;56604;48.652;9.194;2022-07-12T00:19:14;5.97;;;5.40;;
69410;SDS011;56604;48.652;9.194;2022-07-12T00:21:39;6.23;;;5.03;;
69410;SDS011;56604;48.652;9.194;2022-07-12T00:24:04;5.30;;;4.90;;
69410;SDS011;56604;48.652;9.194;2022-07-12T00:26:30;9.17;;;5.20;;
69410;SDS011;56604;48.652;9.194;2022-07-12T00:28:55;5.90;;;5.17;;
69410;SDS011;56604;48.652;9.194;2022-07-12T00:31:22;4.83;;;4.40;;
69410;SDS011;56604;48.652;9.194;2022-07-12T00:33:47;11.70;;;5.30;;
69410;SDS011;56604;48.652;9.194;2022-07-12T00:36:13;7.50;;;5.20;;
69410;SDS011;56604;48.652;9.194;2022-07-12T00:38:38;9.83;;;5.37;;
69410;SDS011;56604;48.652;9.194;2022-07-12T00:41:04;12.63;;;5.57;;
69410;SDS011;56604;48.652;9.194;2022-07-12T00:43:30;8.47;;;5.37;;
69410;SDS011;56604;48.652;9.194;2022-07-12T00:45:55;5.83;;;5.40;;
69410;SDS011;56604;48.652;9.194;2022-07-12T00:48:21;6.20;;;4.97;;
69410;SDS011;56604;48.652;9.194;2022-07-12T00:50:47;5.60;;;5.20;;
69410;SDS011;56604;48.652;9.194;2022-07-12T00:53:13;4.80;;;4.40;;
69410;SDS011;56604;48.652;9.194;2022-07-12T00:55:41;5.60;;;5.10;;
69410;SDS011;56604;48.652;9.194;2022-07-12T00:58:06;5.03;;;4.13;;
69410;SDS011;56604;48.652;9.194;2022-07-12T01:00:32;6.50;;;4.80;;
69410;SDS011;56604;48.652;9.194;2022-07-12T01:02:58;4.80;;;4.40;;
69410;SDS011;56604;48.652;9.194;2022-07-12T01:05:27;6.77;;;5.40;;
69410;SDS011;56604;48.652;9.194;2022-07-12T01:07:54;5.90;;;4.80;;
69410;SDS011;56604;48.652;9.194;2022-07-12T01:10:21;9.53;;;5.00;;
69410;SDS011;56604;48.652;9.194;2022-07-12T01:12:46;5.17;;;4.77;;
69410;SDS011;56604;48.652;9.194;2022-07-12T01:15:12;7.03;;;5.43;;
69410;SDS011;56604;48.652;9.194;2022-07-12T01:17:38;5.60;;;5.10;;
69410;SDS011;56604;48.652;9.194;2022-07-12T01:20:04;6.57;;;5.70;;
69410;SDS011;56604;48.652;9.194;2022-07-12T01:22:39;6.23;;;5.63;;
69410;SDS011;56604;48.652;9.194;2022-07-12T01:25:06;7.40;;;5.43;;
69410;SDS011;56604;48.652;9.194;2022-07-12T01:27:32;7.20;;;5.30;;
69410;SDS011;56604;48.652;9.194;2022-07-12T01:29:59;7.57;;;5.87;;
69410;SDS011;56604;48.652;9.194;2022-07-12T01:32:26;5.80;;;5.30;;
69410;SDS011;56604;48.652;9.194;2022-07-12T01:37:24;6.30;;;5.80;;
69410;SDS011;56604;48.652;9.194;2022-07-12T01:39:55;8.97;;;6.57;;
69410;SDS011;56604;48.652;9.194;2022-07-12T01:42:23;11.13;;;5.57;;
69410;SDS011;56604;48.652;9.194;2022-07-12T01:44:50;6.27;;;5.63;;
69410;SDS011;56604;48.652;9.194;2022-07-12T01:47:20;6.90;;;5.87;;
69410;SDS011;56604;48.652;9.194;2022-07-12T01:49:47;13.03;;;5.47;;
69410;SDS011;56604;48.652;9.194;2022-07-12T01:52:12;6.33;;;5.73;;
69410;SDS011;56604;48.652;9.194;2022-07-12T01:54:38;5.27;;;4.87;;
69410;SDS011;56604;48.652;9.194;2022-07-12T01:57:04;6.10;;;5.50;;
69410;SDS011;56604;48.652;9.194;2022-07-12T01:59:30;6.33;;;5.10;;
69410;SDS011;56604;48.652;9.194;2022-07-12T02:01:56;5.60;;;5.20;;
69410;SDS011;56604;48.652;9.194;2022-07-12T02:04:21;9.10;;;5.30;;
69410;SDS011;56604;48.652;9.194;2022-07-12T02:06:47;5.40;;;5.00;;
69410;SDS011;56604;48.652;9.194;2022-07-12T02:09:13;4.90;;;4.40;;
69410;SDS011;56604;48.652;9.194;2022-07-12T02:11:38;5.23;;;4.20;;
69410;SDS011;56604;48.652;9.194;2022-07-12T02:14:04;4.03;;;3.57;;
69410;SDS011;56604;48.652;9.194;2022-07-12T02:16:29;4.37;;;4.07;;
69410;SDS011;56604;48.652;9.194;2022-07-12T02:18:55;4.63;;;4.10;;
69410;SDS011;56604;48.652;9.194;2022-07-12T02:21:20;4.77;;;4.47;;
69410;SDS011;56604;48.652;9.194;2022-07-12T02:23:46;5.30;;;3.70;;
69410;SDS011;56604;48.652;9.194;2022-07-12T02:26:11;4.80;;;4.40;;
69410;SDS011;56604;48.652;9.194;2022-07-12T02:28:36;5.10;;;4.10;;
69410;SDS011;56604;48.652;9.194;2022-07-12T02:31:02;6.33;;;4.00;;
69410;SDS011;56604;48.652;9.194;2022-07-12T02:33:27;4.07;;;3.83;;
69410;SDS011;56604;48.652;9.194;2022-07-12T02:35:53;5.40;;;4.50;;
69410;SDS011;56604;48.652;9.194;2022-07-12T02:38:18;5.63;;;4.10;;
69410;SDS011;56604;48.652;9.194;2022-07-12T02:40:45;4.30;;;4.00;;
69410;SDS011;56604;48.652;9.194;2022-07-12T02:45:49;4.40;;;4.10;;
69410;SDS011;56604;48.652;9.194;2022-07-12T02:48:15;4.50;;;4.20;;
69410;SDS011;56604;48.652;9.194;2022-07-12T02:50:41;6.33;;;3.87;;
69410;SDS011;56604;48.652;9.194;2022-07-12T02:53:07;5.03;;;4.50;;
69410;SDS011;56604;48.652;9.194;2022-07-12T02:55:35;4.83;;;4.27;;
69410;SDS011;56604;48.652;9.194;2022-07-12T02:58:01;4.33;;;4.00;;
69410;SDS011;56604;48.652;9.194;2022-07-12T03:00:27;4.40;;;4.03;;
69410;SDS011;56604;48.652;9.194;2022-07-12T03:02:53;4.50;;;4.20;;
69410;SDS011;56604;48.652;9.194;2022-07-12T03:05:18;8.37;;;4.50;;
69410;SDS011;56604;48.652;9.194;2022-07-12T03:07:44;4.77;;;4.47;;
69410;SDS011;56604;48.652;9.194;2022-07-12T03:10:09;4.93;;;4.53;;
69410;SDS011;56604;48.652;9.194;2022-07-12T03:12:36;4.90;;;4.60;;
69410;SDS011;56604;48.652;9.194;2022-07-12T03:15:01;6.80;;;5.47;;
69410;SDS011;56604;48.652;9.194;2022-07-12T03:17:27;5.57;;;4.63;;
69410;SDS011;56604;48.652;9.194;2022-07-12T03:19:53;5.73;;;5.20;;
69410;SDS011;56604;48.652;9.194;2022-07-12T03:22:18;4.90;;;4.50;;
69410;SDS011;56604;48.652;9.194;2022-07-12T03:24:43;5.77;;;5.27;;
69410;SDS011;56604;48.652;9.194;2022-07-12T03:27:09;5.30;;;4.90;;
69410;SDS011;56604;48.652;9.194;2022-07-12T03:29:34;5.13;;;4.70;;
69410;SDS011;56604;48.652;9.194;2022-07-12T03:32:01;5.40;;;5.00;;
69410;SDS011;56604;48.652;9.194;2022-07-12T03:34:26;6.73;;;5.43;;
69410;SDS011;56604;48.652;9.194;2022-07-12T03:36:51;7.00;;;5.57;;
69410;SDS011;56604;48.652;9.194;2022-07-12T03:39:17;10.57;;;5.57;;
69410;SDS011;56604;48.652;9.194;2022-07-12T03:41:42;5.63;;;5.23;;
69410;SDS011;56604;48.652;9.194;2022-07-12T03:44:07;6.50;;;6.00;;
69410;SDS011;56604;48.652;9.194;2022-07-12T03:46:33;7.67;;;5.47;;
69410;SDS011;56604;48.652;9.194;2022-07-12T03:48:58;8.30;;;6.80;;
69410;SDS011;56604;48.652;9.194;2022-07-12T03:51:24;6.50;;;6.00;;
69410;SDS011;56604;48.652;9.194;2022-07-12T03:53:50;7.40;;;6.10;;
69410;SDS011;56604;48.652;9.194;2022-07-12T03:56:15;7.50;;;5.93;;
69410;SDS011;56604;48.652;9.194;2022-07-12T03:59:01;7.10;;;6.57;;
69410;SDS011;56604;48.652;9.194;2022-07-12T04:01:27;6.23;;;5.57;;
69410;SDS011;56604;48.652;9.194;2022-07-12T04:03:52;7.50;;;5.60;;
69410;SDS011;56604;48.652;9.194;2022-07-12T04:06:17;5.90;;;5.40;;
69410;SDS011;56604;48.652;9.194;2022-07-12T04:08:42;5.77;;;5.20;;
69410;SDS011;56604;48.652;9.194;2022-07-12T04:11:08;7.30;;;5.23;;
69410;SDS011;56604;48.652;9.194;2022-07-12T04:13:33;5.90;;;5.40;;
69410;SDS011;56604;48.652;9.194;2022-07-12T04:15:58;6.50;;;5.33;;
69410;SDS011;56604;48.652;9.194;2022-07-12T04:18:24;6.30;;;5.37;;
69410;SDS011;56604;48.652;9.194;2022-07-12T04:20:49;5.30;;;4.80;;
69410;SDS011;56604;48.652;9.194;2022-07-12T04:23:15;5.83;;;5.03;;
69410;SDS011;56604;48.652;9.194;2022-07-12T04:25:40;5.00;;;4.63;;
69410;SDS011;56604;48.652;9.194;2022-07-12T04:28:05;12.67;;;4.60;;
69410;SDS011;56604;48.652;9.194;2022-07-12T04:30:31;5.27;;;4.80;;
69410;SDS011;56604;48.652;9.194;2022-07-12T04:32:56;5.07;;;4.67;;
69410;SDS011;56604;48.652;9.194;2022-07-12T04:35:21;4.90;;;4.50;;
69410;SDS011;56604;48.652;9.194;2022-07-12T04:37:46;4.63;;;4.00;;
69410;SDS011;56604;48.652;9.194;2022-07-12T04:42:39;5.50;;;5.10;;
69410;SDS011;56604;48.652;9.194;2022-07-12T04:45:05;6.30;;;5.00;;
69410;SDS011;56604;48.652;9.194;2022-07-12T04:47:31;4.87;;;4.50;;
69410;SDS011;56604;48.652;9.194;2022-07-12T04:49:56;6.07;;;4.37;;
69410;SDS011;56604;48.652;9.194;2022-07-12T04:52:21;4.97;;;4.57;;
69410;SDS011;56604;48.652;9.194;2022-07-12T04:54:47;7.10;;;4.70;;
69410;SDS011;56604;48.652;9.194;2022-07-12T04:57:12;4.60;;;4.20;;
69410;SDS011;56604;48.652;9.194;2022-07-12T04:59:37;5.00;;;4.33;;
69410;SDS011;56604;48.652;9.194;2022-07-12T05:02:03;4.77;;;4.37;;
69410;SDS011;56604;48.652;9.194;2022-07-12T05:04:31;7.80;;;3.80;;
69410;SDS011;56604;48.652;9.194;2022-07-12T05:06:57;5.60;;;4.23;;
69410;SDS011;56604;48.652;9.194;2022-07-12T05:09:23;8.70;;;3.90;;
69410;SDS011;56604;48.652;9.194;2022-07-12T05:11:48;4.07;;;3.77;;
69410;SDS011;56604;48.652;9.194;2022-07-12T05:14:13;4.83;;;4.33;;
69410;SDS011;56604;48.652;9.194;2022-07-12T05:16:39;7.70;;;5.43;;
69410;SDS011;56604;48.652;9.194;2022-07-12T05:19:04;9.30;;;4.60;;
69410;SDS011;56604;48.652;9.194;2022-07-12T05:21:29;5.60;;;5.00;;
69410;SDS011;56604;48.652;9.194;2022-07-12T05:23:55;10.00;;;3.87;;
69410;SDS011;56604;48.652;9.194;2022-07-12T05:26:20;4.13;;;3.70;;
69410;SDS011;56604;48.652;9.194;2022-07-12T05:28:45;3.93;;;3.63;;
69410;SDS011;56604;48.652;9.194;2022-07-12T05:31:10;4.00;;;3.60;;
69410;SDS011;56604;48.652;9.194;2022-07-12T05:33:36;8.87;;;4.10;;
69410;SDS011;56604;48.652;9.194;2022-07-12T05:36:01;4.10;;;3.53;;
69410;SDS011;56604;48.652;9.194;2022-07-12T05:38:27;7.60;;;4.70;;
69410;SDS011;56604;48.652;9.194;2022-07-12T05:40:52;4.13;;;3.73;;
69410;SDS011;56604;48.652;9.194;2022-07-12T05:43:17;5.13;;;3.97;;
69410;SDS011;56604;48.652;9.194;2022-07-12T05:45:43;5.60;;;4.10;;
69410;SDS011;56604;48.652;9.194;2022-07-12T05:48:08;5.07;;;3.77;;
69410;SDS011;56604;48.652;9.194;2022-07-12T05:50:34;4.83;;;3.53;;
69410;SDS011;56604;48.652;9.194;2022-07-12T05:52:59;5.00;;;3.97;;
69410;SDS011;56604;48.652;9.194;2022-07-12T05:55:43;4.43;;;4.13;;
69410;SDS011;56604;48.652;9.194;2022-07-12T05:58:10;3.83;;;3.53;;
69410;SDS011;56604;48.652;9.194;2022-07-12T06:00:35;5.87;;;3.60;;
69410;SDS011;56604;48.652;9.194;2022-07-12T06:03:01;5.63;;;3.70;;
69410;SDS011;56604;48.652;9.194;2022-07-12T06:05:26;4.13;;;3.73;;
69410;SDS011;56604;48.652;9.194;2022-07-12T06:07:52;7.67;;;3.87;;
69410;SDS011;56604;48.652;9.194;2022-07-12T06:10:18;3.67;;;3.47;;
69410;SDS011;56604;48.652;9.194;2022-07-12T06:12:43;7.80;;;4.60;;
69410;SDS011;56604;48.652;9.194;2022-07-12T06:15:08;8.17;;;4.13;;
69410;SDS011;56604;48.652;9.194;2022-07-12T06:17:34;5.50;;;4.00;;
69410;SDS011;56604;48.652;9.194;2022-07-12T06:20:00;4.37;;;4.00;;
69410;SDS011;56604;48.652;9.194;2022-07-12T06:22:26;4.30;;;3.73;;
69410;SDS011;56604;48.652;9.194;2022-07-12T06:24:51;8.23;;;3.00;;
69410;SDS011;56604;48.652;9.194;2022-07-12T06:27:16;3.87;;;2.80;;
69410;SDS011;56604;48.652;9.194;2022-07-12T06:29:42;4.63;;;3.50;;
69410;SDS011;56604;48.652;9.194;2022-07-12T06:32:12;3.67;;;3.40;;
69410;SDS011;56604;48.652;9.194;2022-07-12T06:34:38;3.77;;;3.47;;
69410;SDS011;56604;48.652;9.194;2022-07-12T06:37:03;2.87;;;2.77;;
69410;SDS011;56604;48.652;9.194;2022-07-12T06:39:29;3.50;;;2.40;;
69410;SDS011;56604;48.652;9.194;2022-07-12T06:41:54;2.60;;;2.40;;
69410;SDS011;56604;48.652;9.194;2022-07-12T06:44:19;2.47;;;2.00;;
69410;SDS011;56604;48.652;9.194;2022-07-12T06:46:45;2.23;;;2.10;;
69410;SDS011;56604;48.652;9.194;2022-07-12T06:49:10;2.27;;;2.17;;
69410;SDS011;56604;48.652;9.194;2022-07-12T06:51:35;2.47;;;2.00;;
69410;SDS011;56604;48.652;9.194;2022-07-12T06:54:04;2.23;;;2.00;;
69410;SDS011;56604;48.652;9.194;2022-07-12T06:56:29;2.83;;;2.10;;
69410;SDS011;56604;48.652;9.194;2022-07-12T06:58:55;2.37;;;2.27;;
69410;SDS011;56604;48.652;9.194;2022-07-12T07:01:20;2.70;;;2.50;;
69410;SDS011;56604;48.652;9.194;2022-07-12T07:03:45;6.27;;;2.50;;
69410;SDS011;56604;48.652;9.194;2022-07-12T07:06:11;2.50;;;2.40;;
69410;SDS011;56604;48.652;9.194;2022-07-12T07:08:36;3.53;;;1.67;;
69410;SDS011;56604;48.652;9.194;2022-07-12T07:11:02;2.23;;;1.97;;
69410;SDS011;56604;48.652;9.194;2022-07-12T07:13:27;2.70;;;1.90;;
69410;SDS011;56604;48.652;9.194;2022-07-12T07:15:52;2.27;;;2.17;;
69410;SDS011;56604;48.652;9.194;2022-07-12T07:18:18;1.60;;;1.50;;
69410;SDS011;56604;48.652;9.194;2022-07-12T07:20:43;1.87;;;1.80;;
69410;SDS011;56604;48.652;9.194;2022-07-12T07:23:08;2.60;;;1.90;;
69410;SDS011;56604;48.652;9.194;2022-07-12T07:25:35;2.20;;;2.03;;
69410;SDS011;56604;48.652;9.194;2022-07-12T07:28:00;6.20;;;1.50;;
69410;SDS011;56604;48.652;9.194;2022-07-12T07:30:26;1.90;;;1.80;;
69410;SDS011;56604;48.652;9.194;2022-07-12T07:33:10;11.50;;;1.37;;
69410;SDS011;56604;48.652;9.194;2022-07-12T07:35:35;1.73;;;1.33;;
69410;SDS011;56604;48.652;9.194;2022-07-12T07:38:02;1.50;;;1.40;;
69410;SDS011;56604;48.652;9.194;2022-07-12T07:40:27;1.20;;;1.00;;
69410;SDS011;56604;48.652;9.194;2022-07-12T07:42:53;1.40;;;1.30;;
69410;SDS011;56604;48.652;9.194;2022-07-12T07:45:18;1.10;;;1.10;;
69410;SDS011;56604;48.652;9.194;2022-07-12T07:50:09;3.30;;;1.00;;
69410;SDS011;56604;48.652;9.194;2022-07-12T07:52:35;1.20;;;1.10;;
69410;SDS011;56604;48.652;9.194;2022-07-12T07:55:00;1.00;;;0.90;;
69410;SDS011;56604;48.652;9.194;2022-07-12T07:57:25;1.20;;;1.10;;
69410;SDS011;56604;48.652;9.194;2022-07-12T07:59:51;1.83;;;1.73;;
69410;SDS011;56604;48.652;9.194;2022-07-12T08:02:16;2.83;;;1.47;;
69410;SDS011;56604;48.652;9.194;2022-07-12T08:04:41;1.20;;;1.20;;
69410;SDS011;56604;48.652;9.194;2022-07-12T08:07:07;1.43;;;1.30;;
69410;SDS011;56604;48.652;9.194;2022-07-12T08:09:32;6.50;;;1.60;;
69410;SDS011;56604;48.652;9.194;2022-07-12T08:11:57;3.57;;;1.37;;
69410;SDS011;56604;48.652;9.194;2022-07-12T08:14:23;1.20;;;1.10;;
69410;SDS011;56604;48.652;9.194;2022-07-12T08:16:48;3.60;;;1.40;;
69410;SDS011;56604;48.652;9.194;2022-07-12T08:19:13;1.00;;;0.90;;
69410;SDS011;56604;48.652;9.194;2022-07-12T08:21:39;2.73;;;1.17;;
69410;SDS011;56604;48.652;9.194;2022-07-12T08:24:04;1.50;;;1.03;;
69410;SDS011;56604;48.652;9.194;2022-07-12T08:26:29;1.90;;;0.90;;
69410;SDS011;56604;48.652;9.194;2022-07-12T08:28:55;1.50;;;1.40;;
69410;SDS011;56604;48.652;9.194;2022-07-12T08:31:21;1.33;;;1.23;;
69410;SDS011;56604;48.652;9.194;2022-07-12T08:33:47;5.00;;;1.63;;
69410;SDS011;56604;48.652;9.194;2022-07-12T08:36:12;4.60;;;1.60;;
69410;SDS011;56604;48.652;9.194;2022-07-12T08:38:37;1.60;;;1.30;;
69410;SDS011;56604;48.652;9.194;2022-07-12T08:41:06;1.40;;;1.30;;
69410;SDS011;56604;48.652;9.194;2022-07-12T08:43:35;1.13;;;1.13;;
69410;SDS011;56604;48.652;9.194;2022-07-12T08:46:04;1.50;;;1.40;;
69410;SDS011;56604;48.652;9.194;2022-07-12T08:48:31;1.53;;;1.43;;
69410;SDS011;56604;48.652;9.194;2022-07-12T08:51:01;4.00;;;1.40;;
69410;SDS011;56604;48.652;9.194;2022-07-12T08:53:31;1.83;;;1.40;;
69410;SDS011;56604;48.652;9.194;2022-07-12T08:55:56;1.53;;;1.53;;
69410;SDS011;56604;48.652;9.194;2022-07-12T08:58:22;1.90;;;1.80;;
69410;SDS011;56604;48.652;9.194;2022-07-12T09:00:47;1.83;;;1.73;;
69410;SDS011;56604;48.652;9.194;2022-07-12T09:03:13;5.60;;;2.10;;
69410;SDS011;56604;48.652;9.194;2022-07-12T09:05:44;4.60;;;2.00;;
69410;SDS011;56604;48.652;9.194;2022-07-12T09:08:12;1.90;;;1.80;;
69410;SDS011;56604;48.652;9.194;2022-07-12T09:13:15;2.53;;;2.33;;
69410;SDS011;56604;48.652;9.194;2022-07-12T09:15:42;4.70;;;1.77;;
69410;SDS011;56604;48.652;9.194;2022-07-12T09:18:07;2.40;;;1.80;;
69410;SDS011;56604;48.652;9.194;2022-07-12T09:20:38;2.60;;;1.53;;
69410;SDS011;56604;48.652;9.194;2022-07-12T09:23:11;4.33;;;1.43;;
69410;SDS011;56604;48.652;9.194;2022-07-12T09:25:37;3.60;;;1.60;;
69410;SDS011;56604;48.652;9.194;2022-07-12T09:28:08;3.60;;;1.40;;
69410;SDS011;56604;48.652;9.194;2022-07-12T09:30:34;1.60;;;1.50;;
69410;SDS011;56604;48.652;9.194;2022-07-12T09:33:04;2.03;;;1.37;;
69410;SDS011;56604;48.652;9.194;2022-07-12T09:41:18;1.17;;;1.17;;
69410;SDS011;56604;48.652;9.194;2022-07-12T09:43:45;1.50;;;1.50;;
69410;SDS011;56604;48.652;9.194;2022-07-12T09:46:10;4.80;;;1.57;;
69410;SDS011;56604;48.652;9.194;2022-07-12T09:48:38;1.80;;;1.70;;
69410;SDS011;56604;48.652;9.194;2022-07-12T09:51:05;3.57;;;1.70;;
69410;SDS011;56604;48.652;9.194;2022-07-12T09:53:49;2.03;;;1.50;;
69410;SDS011;56604;48.652;9.194;2022-07-12T09:56:17;1.60;;;1.60;;
69410;SDS011;56604;48.652;9.194;2022-07-12T09:58:55;1.73;;;1.63;;
69410;SDS011;56604;48.652;9.194;2022-07-12T10:01:22;1.80;;;1.70;;
69410;SDS011;56604;48.652;9.194;2022-07-12T10:03:48;1.93;;;1.40;;
69410;SDS011;56604;48.652;9.194;2022-07-12T10:06:16;6.73;;;1.80;;
69410;SDS011;56604;48.652;9.194;2022-07-12T10:08:47;1.57;;;1.50;;
69410;SDS011;56604;48.652;9.194;2022-07-12T10:11:13;1.73;;;1.63;;
69410;SDS011;56604;48.652;9.194;2022-07-12T10:13:38;1.40;;;1.40;;
69410;SDS011;56604;48.652;9.194;2022-07-12T10:16:05;1.70;;;1.60;;
69410;SDS011;56604;48.652;9.194;2022-07-12T10:18:34;1.30;;;1.20;;
69410;SDS011;56604;48.652;9.194;2022-07-12T10:20:59;1.43;;;1.33;;
69410;SDS011;56604;48.652;9.194;2022-07-12T10:23:28;1.30;;;1.30;;
69410;SDS011;56604;48.652;9.194;2022-07-12T10:25:56;1.33;;;1.20;;
69410;SDS011;56604;48.652;9.194;2022-07-12T10:28:21;1.20;;;1.20;;
69410;SDS011;56604;48.652;9.194;2022-07-12T10:30:48;1.37;;;1.27;;
69410;SDS011;56604;48.652;9.194;2022-07-12T10:33:18;3.17;;;1.27;;
69410;SDS011;56604;48.652;9.194;2022-07-12T10:38:33;1.13;;;1.10;;
69410;SDS011;56604;48.652;9.194;2022-07-12T10:43:45;3.27;;;1.97;;
69410;SDS011;56604;48.652;9.194;2022-07-12T10:46:29;1.40;;;1.30;;
69410;SDS011;56604;48.652;9.194;2022-07-12T10:57:02;2.10;;;1.30;;
69410;SDS011;56604;48.652;9.194;2022-07-12T10:59:28;5.33;;;1.20;;
69410;SDS011;56604;48.652;9.194;2022-07-12T11:01:55;1.00;;;1.00;;
69410;SDS011;56604;48.652;9.194;2022-07-12T11:04:21;1.90;;;1.47;;
69410;SDS011;56604;48.652;9.194;2022-07-12T11:06:46;1.30;;;1.30;;
69410;SDS011;56604;48.652;9.194;2022-07-12T11:09:15;2.10;;;1.43;;
69410;SDS011;56604;48.652;9.194;2022-07-12T11:11:43;2.70;;;1.10;;
69410;SDS011;56604;48.652;9.194;2022-07-12T11:14:11;1.33;;;1.00;;
69410;SDS011;56604;48.652;9.194;2022-07-12T11:16:44;2.30;;;1.00;;
69410;SDS011;56604;48.652;9.194;2022-07-12T11:19:10;1.87;;;1.13;;
69410;SDS011;56604;48.652;9.194;2022-07-12T11:21:35;1.00;;;1.00;;
69410;SDS011;56604;48.652;9.194;2022-07-12T11:24:01;1.83;;;1.17;;
69410;SDS011;56604;48.652;9.194;2022-07-12T11:26:27;1.83;;;1.40;;
69410;SDS011;56604;48.652;9.194;2022-07-12T11:28:55;2.70;;;1.07;;
69410;SDS011;56604;48.652;9.194;2022-07-12T11:31:22;1.37;;;1.37;;
69410;SDS011;56604;48.652;9.194;2022-07-12T11:33:48;1.63;;;1.10;;
69410;SDS011;56604;48.652;9.194;2022-07-12T11:36:16;2.70;;;1.30;;
69410;SDS011;56604;48.652;9.194;2022-07-12T11:38:43;1.30;;;1.20;;
69410;SDS011;56604;48.652;9.194;2022-07-12T11:41:11;1.13;;;1.13;;
69410;SDS011;56604;48.652;9.194;2022-07-12T11:43:38;4.63;;;1.20;;
69410;SDS011;56604;48.652;9.194;2022-07-12T11:46:04;1.20;;;1.10;;
69410;SDS011;56604;48.652;9.194;2022-07-12T11:48:30;1.33;;;1.00;;
69410;SDS011;56604;48.652;9.194;2022-07-12T11:51:00;0.90;;;0.90;;
69410;SDS011;56604;48.652;9.194;2022-07-12T11:53:28;1.17;;;1.07;;
69410;SDS011;56604;48.652;9.194;2022-07-12T11:55:55;1.03;;;1.03;;
69410;SDS011;56604;48.652;9.194;2022-07-12T11:58:22;1.00;;;1.00;;
69410;SDS011;56604;48.652;9.194;2022-07-12T12:00:48;2.37;;;1.23;;
69410;SDS011;56604;48.652;9.194;2022-07-12T12:03:15;3.23;;;0.97;;
69410;SDS011;56604;48.652;9.194;2022-07-12T12:05:42;0.80;;;0.80;;
69410;SDS011;56604;48.652;9.194;2022-07-12T12:08:09;1.73;;;0.90;;
69410;SDS011;56604;48.652;9.194;2022-07-12T12:10:36;2.60;;;1.00;;
69410;SDS011;56604;48.652;9.194;2022-07-12T12:13:02;2.60;;;1.20;;
69410;SDS011;56604;48.652;9.194;2022-07-12T12:15:31;4.83;;;1.10;;
69410;SDS011;56604;48.652;9.194;2022-07-12T12:18:02;0.87;;;0.87;;
69410;SDS011;56604;48.652;9.194;2022-07-12T12:20:30;1.57;;;1.00;;
69410;SDS011;56604;48.652;9.194;2022-07-12T12:23:01;4.63;;;1.00;;
69410;SDS011;56604;48.652;9.194;2022-07-12T12:25:28;1.00;;;0.90;;
69410;SDS011;56604;48.652;9.194;2022-07-12T12:30:19;1.00;;;1.00;;
69410;SDS011;56604;48.652;9.194;2022-07-12T12:35:11;1.27;;;1.13;;
69410;SDS011;56604;48.652;9.194;2022-07-12T12:37:37;1.00;;;1.00;;
69410;SDS011;56604;48.652;9.194;2022-07-12T12:40:03;7.17;;;1.23;;
69410;SDS011;56604;48.652;9.194;2022-07-12T12:42:30;1.20;;;1.00;;
69410;SDS011;56604;48.652;9.194;2022-07-12T12:44:55;1.67;;;1.10;;
69410;SDS011;56604;48.652;9.194;2022-07-12T12:47:20;1.00;;;1.00;;
69410;SDS011;56604;48.652;9.194;2022-07-12T12:50:01;1.07;;;1.07;;
69410;SDS011;56604;48.652;9.194;2022-07-12T12:52:28;3.23;;;1.10;;
69410;SDS011;56604;48.652;9.194;2022-07-12T12:54:55;1.47;;;1.13;;
69410;SDS011;56604;48.652;9.194;2022-07-12T12:57:21;1.10;;;1.10;;
69410;SDS011;56604;48.652;9.194;2022-07-12T12:59:49;1.00;;;1.00;;
69410;SDS011;56604;48.652;9.194;2022-07-12T13:02:14;1.10;;;1.10;;
69410;SDS011;56604;48.652;9.194;2022-07-12T13:04:39;1.30;;;1.20;;
69410;SDS011;56604;48.652;9.194;2022-07-12T13:07:05;1.03;;;1.03;;
69410;SDS011;56604;48.652;9.194;2022-07-12T13:09:31;1.73;;;1.00;;
69410;SDS011;56604;48.652;9.194;2022-07-12T13:11:57;2.23;;;1.00;;
69410;SDS011;56604;48.652;9.194;2022-07-12T13:14:23;1.00;;;1.00;;
69410;SDS011;56604;48.652;9.194;2022-07-12T13:16:49;0.90;;;0.90;;
69410;SDS011;56604;48.652;9.194;2022-07-12T13:19:14;0.83;;;0.83;;
69410;SDS011;56604;48.652;9.194;2022-07-12T13:21:40;3.23;;;0.90;;
69410;SDS011;56604;48.652;9.194;2022-07-12T13:24:05;1.47;;;1.00;;
69410;SDS011;56604;48.652;9.194;2022-07-12T13:26:31;0.90;;;0.90;;
69410;SDS011;56604;48.652;9.194;2022-07-12T13:28:56;1.47;;;1.00;;
69410;SDS011;56604;48.652;9.194;2022-07-12T13:31:22;0.93;;;0.93;;
69410;SDS011;56604;48.652;9.194;2022-07-12T13:33:48;1.13;;;1.03;;
69410;SDS011;56604;48.652;9.194;2022-07-12T13:36:13;0.90;;;0.90;;
69410;SDS011;56604;48.652;9.194;2022-07-12T13:38:39;2.40;;;1.20;;
69410;SDS011;56604;48.652;9.194;2022-07-12T13:41:05;0.90;;;0.90;;
69410;SDS011;56604;48.652;9.194;2022-07-12T13:43:31;6.43;;;1.10;;
69410;SDS011;56604;48.652;9.194;2022-07-12T13:45:57;4.43;;;1.10;;
69410;SDS011;56604;48.652;9.194;2022-07-12T13:48:22;8.60;;;1.10;;
69410;SDS011;56604;48.652;9.194;2022-07-12T13:50:48;6.93;;;1.00;;
69410;SDS011;56604;48.652;9.194;2022-07-12T13:53:14;2.83;;;1.03;;
69410;SDS011;56604;48.652;9.194;2022-07-12T13:55:43;0.90;;;0.90;;
69410;SDS011;56604;48.652;9.194;2022-07-12T13:58:09;0.97;;;0.80;;
69410;SDS011;56604;48.652;9.194;2022-07-12T14:00:35;4.00;;;1.10;;
69410;SDS011;56604;48.652;9.194;2022-07-12T14:03:00;1.00;;;1.00;;
69410;SDS011;56604;48.652;9.194;2022-07-12T14:05:26;1.43;;;1.07;;
69410;SDS011;56604;48.652;9.194;2022-07-12T14:07:51;2.37;;;1.00;;
69410;SDS011;56604;48.652;9.194;2022-07-12T14:10:17;1.00;;;1.00;;
69410;SDS011;56604;48.652;9.194;2022-07-12T14:12:42;1.00;;;1.00;;
69410;SDS011;56604;48.652;9.194;2022-07-12T14:15:08;2.00;;;1.20;;
69410;SDS011;56604;48.652;9.194;2022-07-12T14:20:11;0.87;;;0.87;;
69410;SDS011;56604;48.652;9.194;2022-07-12T14:22:38;3.40;;;0.90;;
69410;SDS011;56604;48.652;9.194;2022-07-12T14:25:03;5.83;;;1.20;;
69410;SDS011;56604;48.652;9.194;2022-07-12T14:27:36;12.40;;;1.43;;
69410;SDS011;56604;48.652;9.194;2022-07-12T14:30:03;0.80;;;0.80;;
69410;SDS011;56604;48.652;9.194;2022-07-12T14:32:31;1.20;;;1.10;;
69410;SDS011;56604;48.652;9.194;2022-07-12T14:34:56;0.90;;;0.90;;
69410;SDS011;56604;48.652;9.194;2022-07-12T14:37:21;0.87;;;0.87;;
69410;SDS011;56604;48.652;9.194;2022-07-12T14:39:47;0.80;;;0.80;;
69410;SDS011;56604;48.652;9.194;2022-07-12T14:42:13;2.17;;;0.73;;
69410;SDS011;56604;48.652;9.194;2022-07-12T14:44:39;1.27;;;0.90;;
69410;SDS011;56604;48.652;9.194;2022-07-12T14:47:04;2.40;;;1.17;;
69410;SDS011;56604;48.652;9.194;2022-07-12T14:49:31;1.73;;;1.03;;
69410;SDS011;56604;48.652;9.194;2022-07-12T14:51:56;0.83;;;0.83;;
69410;SDS011;56604;48.652;9.194;2022-07-12T14:54:22;1.00;;;0.93;;
69410;SDS011;56604;48.652;9.194;2022-07-12T14:56:47;0.93;;;0.90;;
69410;SDS011;56604;48.652;9.194;2022-07-12T14:59:13;2.10;;;0.80;;
69410;SDS011;56604;48.652;9.194;2022-07-12T15:01:38;0.90;;;0.90;;
69410;SDS011;56604;48.652;9.194;2022-07-12T15:04:04;1.53;;;1.00;;
69410;SDS011;56604;48.652;9.194;2022-07-12T15:06:29;2.33;;;0.80;;
69410;SDS011;56604;48.652;9.194;2022-07-12T15:08:55;3.30;;;0.87;;
69410;SDS011;56604;48.652;9.194;2022-07-12T15:11:20;8.70;;;0.80;;
69410;SDS011;56604;48.652;9.194;2022-07-12T15:13:46;4.87;;;0.90;;
69410;SDS011;56604;48.652;9.194;2022-07-12T15:16:11;1.13;;;0.87;;
69410;SDS011;56604;48.652;9.194;2022-07-12T15:18:37;0.90;;;0.90;;
69410;SDS011;56604;48.652;9.194;2022-07-12T15:21:02;1.63;;;0.80;;
69410;SDS011;56604;48.652;9.194;2022-07-12T15:23:28;6.73;;;0.90;;